createdAt,value
2022-11-27T00:00:00.521Z,6.58
2022-11-27T00:02:27.502Z,6.66
2022-11-27T00:04:54.531Z,6.66
2022-11-27T00:07:21.545Z,6.60
2022-11-27T00:09:48.503Z,6.49
2022-11-27T00:12:15.377Z,6.35
2022-11-27T00:14:42.279Z,6.29
2022-11-27T00:17:09.183Z,6.30
2022-11-27T00:19:36.146Z,6.41
2022-11-27T00:22:02.997Z,6.25
2022-11-27T00:24:30.003Z,6.07
2022-11-27T00:26:56.971Z,6.30
2022-11-27T00:29:23.888Z,6.33
2022-11-27T00:31:50.764Z,5.85
2022-11-27T00:34:17.619Z,6.12
2022-11-27T00:36:48.022Z,6.48
2022-11-27T00:39:15.387Z,6.16
2022-11-27T00:41:42.311Z,6.24
2022-11-27T00:44:09.286Z,6.57
2022-11-27T00:46:36.517Z,6.77
2022-11-27T00:49:05.911Z,6.51
2022-11-27T00:51:32.889Z,6.09
2022-11-27T00:53:59.913Z,6.42
2022-11-27T00:56:30.634Z,6.26
2022-11-27T00:58:57.801Z,6.47
2022-11-27T01:01:30.454Z,6.41
2022-11-27T01:03:58.825Z,5.98
2022-11-27T01:06:27.416Z,6.10
2022-11-27T01:08:54.884Z,6.17
2022-11-27T01:11:27.476Z,5.93
2022-11-27T01:13:57.376Z,6.31
2022-11-27T01:16:25.992Z,6.49
2022-11-27T01:18:55.764Z,6.49
2022-11-27T01:21:22.651Z,6.40
2022-11-27T01:23:50.257Z,6.40
2022-11-27T01:26:18.085Z,6.41
2022-11-27T01:28:46.014Z,6.45
2022-11-27T01:31:21.795Z,5.96
2022-11-27T01:33:53.536Z,6.31
2022-11-27T01:36:20.855Z,6.63
2022-11-27T01:38:47.933Z,6.51
2022-11-27T01:41:22.414Z,6.27
2022-11-27T01:43:58.775Z,6.21
2022-11-27T01:46:53.578Z,6.30
2022-11-27T01:49:47.501Z,6.81
2022-11-27T01:52:26.137Z,7.32
2022-11-27T01:55:01.833Z,7.52
2022-11-27T01:57:36.377Z,7.07
2022-11-27T02:00:06.981Z,6.87
2022-11-27T02:02:40.029Z,6.40
2022-11-27T02:05:07.333Z,6.34
2022-11-27T02:07:34.760Z,6.11
2022-11-27T02:10:02.226Z,6.24
2022-11-27T02:12:44.918Z,6.27
2022-11-27T02:15:26.697Z,6.14
2022-11-27T02:18:27.638Z,6.26
2022-11-27T02:21:09.114Z,6.10
2022-11-27T02:23:42.197Z,6.03
2022-11-27T02:26:18.727Z,6.34
2022-11-27T02:28:54.773Z,6.37
2022-11-27T02:31:47.914Z,6.26
2022-11-27T02:34:24.143Z,6.37
2022-11-27T02:37:03.613Z,6.61
2022-11-27T02:39:37.694Z,6.58
2022-11-27T02:42:11.504Z,6.57
2022-11-27T02:44:44.548Z,6.22
2022-11-27T02:47:13.653Z,6.02
2022-11-27T02:49:43.255Z,6.04
2022-11-27T02:52:14.046Z,5.93
2022-11-27T02:54:43.648Z,6.15
2022-11-27T02:57:13.127Z,6.28
2022-11-27T02:59:43.038Z,6.06
2022-11-27T03:02:14.939Z,5.86
2022-11-27T03:04:55.625Z,5.96
2022-11-27T03:07:36.145Z,5.90
2022-11-27T03:10:10.272Z,5.68
2022-11-27T03:12:37.468Z,5.60
2022-11-27T03:15:06.590Z,5.70
2022-11-27T03:18:08.759Z,5.80
2022-11-27T03:20:41.402Z,5.79
2022-11-27T03:23:08.298Z,5.77
2022-11-27T03:25:35.306Z,5.89
2022-11-27T03:28:06.198Z,5.97
2022-11-27T03:30:33.150Z,5.58
2022-11-27T03:33:01.409Z,5.51
2022-11-27T03:35:31.418Z,5.50
2022-11-27T03:37:58.544Z,5.56
2022-11-27T03:40:34.302Z,5.72
2022-11-27T03:43:11.646Z,5.57
2022-11-27T03:45:49.335Z,5.68
2022-11-27T03:48:34.178Z,5.78
2022-11-27T03:51:05.806Z,6.18
2022-11-27T03:53:45.083Z,6.19
2022-11-27T03:56:42.373Z,6.24
2022-11-27T03:59:16.036Z,6.23
2022-11-27T04:01:43.055Z,6.33
2022-11-27T04:04:10.066Z,6.24
2022-11-27T04:06:36.972Z,6.35
2022-11-27T04:09:04.414Z,6.22
2022-11-27T04:11:31.310Z,6.04
2022-11-27T04:13:58.993Z,6.27
2022-11-27T04:16:25.931Z,6.51
2022-11-27T04:18:52.891Z,6.03
2022-11-27T04:21:19.766Z,6.40
2022-11-27T04:23:46.744Z,6.53
2022-11-27T04:26:13.702Z,6.50
2022-11-27T04:28:40.635Z,6.24
2022-11-27T04:31:07.598Z,5.97
2022-11-27T04:33:34.582Z,6.14
2022-11-27T04:36:01.442Z,5.72
2022-11-27T04:38:28.334Z,5.56
2022-11-27T04:40:55.238Z,5.50
2022-11-27T04:43:22.137Z,5.63
2022-11-27T04:45:48.986Z,5.76
2022-11-27T04:48:15.913Z,5.37
2022-11-27T04:50:42.815Z,5.38
2022-11-27T04:53:09.700Z,5.51
2022-11-27T04:55:36.675Z,5.30
2022-11-27T04:58:03.916Z,5.11
2022-11-27T05:00:30.893Z,5.51
2022-11-27T05:02:57.837Z,5.71
2022-11-27T05:05:24.762Z,5.69
2022-11-27T05:07:51.682Z,5.42
2022-11-27T05:10:18.665Z,5.25
2022-11-27T05:12:45.737Z,4.98
2022-11-27T05:15:12.626Z,5.55
2022-11-27T05:17:39.715Z,5.51
2022-11-27T05:20:07.847Z,5.53
2022-11-27T05:22:34.747Z,5.35
2022-11-27T05:25:01.710Z,5.21
2022-11-27T05:27:28.552Z,5.06
2022-11-27T05:29:55.450Z,5.11
2022-11-27T05:32:22.317Z,4.69
2022-11-27T05:34:49.798Z,4.70
2022-11-27T05:37:19.738Z,4.87
2022-11-27T05:39:47.163Z,5.12
2022-11-27T05:42:14.410Z,5.30
2022-11-27T05:44:41.365Z,5.75
2022-11-27T05:47:08.489Z,5.06
2022-11-27T05:49:35.443Z,5.15
2022-11-27T05:52:02.336Z,5.16
2022-11-27T05:54:29.225Z,5.39
2022-11-27T05:56:56.076Z,5.16
2022-11-27T05:59:22.982Z,4.85
2022-11-27T06:01:49.917Z,5.18
2022-11-27T06:04:16.888Z,5.06
2022-11-27T06:06:43.816Z,5.10
2022-11-27T06:09:13.203Z,5.14
2022-11-27T06:11:41.946Z,5.14
2022-11-27T06:14:10.356Z,5.16
2022-11-27T06:16:37.960Z,4.93
2022-11-27T06:19:05.003Z,5.48
2022-11-27T06:21:31.961Z,6.10
2022-11-27T06:23:59.492Z,5.77
2022-11-27T06:26:29.660Z,5.68
2022-11-27T06:28:58.209Z,5.71
2022-11-27T06:31:28.122Z,6.09
2022-11-27T06:33:55.937Z,6.63
2022-11-27T06:36:25.514Z,6.70
2022-11-27T06:38:52.374Z,6.25
2022-11-27T06:41:21.804Z,5.71
2022-11-27T06:43:48.954Z,5.71
2022-11-27T06:46:19.286Z,5.52
2022-11-27T06:48:47.517Z,5.86
2022-11-27T06:51:18.904Z,5.54
2022-11-27T06:53:45.929Z,5.81
2022-11-27T06:56:15.590Z,5.75
2022-11-27T06:58:43.107Z,5.83
2022-11-27T07:01:13.574Z,6.05
2022-11-27T07:03:41.095Z,6.39
2022-11-27T07:06:10.446Z,6.20
2022-11-27T07:08:37.415Z,7.31
2022-11-27T07:11:06.562Z,7.55
2022-11-27T07:13:33.894Z,7.41
2022-11-27T07:16:09.629Z,7.79
2022-11-27T07:18:42.242Z,8.58
2022-11-27T07:21:09.681Z,8.24
2022-11-27T07:23:37.788Z,8.83
2022-11-27T07:26:09.614Z,9.28
2022-11-27T07:28:36.659Z,9.46
2022-11-27T07:31:03.978Z,10.02
2022-11-27T07:33:30.913Z,10.17
2022-11-27T07:36:03.403Z,10.69
2022-11-27T07:38:30.315Z,10.17
2022-11-27T07:41:01.384Z,10.73
2022-11-27T07:43:29.057Z,11.17
2022-11-27T07:45:56.346Z,11.55
2022-11-27T07:48:23.539Z,12.86
2022-11-27T07:50:50.416Z,12.86
2022-11-27T07:53:17.502Z,12.75
2022-11-27T07:55:44.436Z,13.83
2022-11-27T07:58:11.479Z,12.93
2022-11-27T08:00:38.494Z,12.20
2022-11-27T08:03:05.584Z,12.88
2022-11-27T08:05:36.706Z,12.76
2022-11-27T08:08:04.965Z,12.20
2022-11-27T08:10:35.884Z,11.70
2022-11-27T08:13:02.889Z,12.95
2022-11-27T08:15:29.923Z,13.25
2022-11-27T08:17:57.657Z,12.33
2022-11-27T08:20:24.797Z,12.01
2022-11-27T08:22:51.697Z,11.35
2022-11-27T08:25:18.806Z,11.08
2022-11-27T08:27:48.248Z,12.12
2022-11-27T08:30:15.904Z,13.52
2022-11-27T08:32:43.803Z,12.72
2022-11-27T08:35:11.786Z,13.00
2022-11-27T08:37:38.827Z,12.94
2022-11-27T08:40:06.534Z,14.30
2022-11-27T08:42:33.431Z,15.01
2022-11-27T08:45:00.449Z,15.01
2022-11-27T08:47:27.311Z,16.46
2022-11-27T08:49:54.276Z,15.72
2022-11-27T08:52:21.924Z,16.32
2022-11-27T08:54:52.018Z,17.92
2022-11-27T08:57:23.064Z,18.33
2022-11-27T08:59:50.000Z,18.57
2022-11-27T09:02:16.884Z,17.47
2022-11-27T09:04:44.006Z,18.26
2022-11-27T09:07:14.440Z,18.18
2022-11-27T09:09:41.485Z,17.33
2022-11-27T09:12:08.715Z,15.90
2022-11-27T09:14:35.681Z,16.84
2022-11-27T09:17:02.702Z,16.36
2022-11-27T09:19:29.651Z,15.89
2022-11-27T09:21:56.534Z,16.71
2022-11-27T09:24:23.661Z,17.38
2022-11-27T09:26:50.548Z,18.77
2022-11-27T09:29:17.445Z,17.24
2022-11-27T09:31:44.364Z,18.73
2022-11-27T09:34:11.340Z,18.63
2022-11-27T09:36:38.253Z,19.51
2022-11-27T09:39:05.200Z,19.13
2022-11-27T09:41:39.767Z,16.83
2022-11-27T09:44:33.723Z,17.09
2022-11-27T09:47:10.210Z,14.92
2022-11-27T09:49:45.899Z,16.84
2022-11-27T09:52:21.157Z,18.57
2022-11-27T09:54:57.839Z,19.50
2022-11-27T09:57:33.146Z,15.98
2022-11-27T10:00:07.136Z,16.89
2022-11-27T10:02:35.566Z,16.39
2022-11-27T10:05:15.467Z,18.02
2022-11-27T10:07:51.976Z,17.55
2022-11-27T10:10:41.465Z,15.39
2022-11-27T10:13:22.132Z,17.15
2022-11-27T10:16:01.792Z,16.74
2022-11-27T10:18:33.758Z,16.67
2022-11-27T10:21:13.397Z,15.63
2022-11-27T10:24:12.933Z,15.97
2022-11-27T10:26:48.603Z,16.79
2022-11-27T10:29:36.378Z,16.74
2022-11-27T10:35:19.734Z,17.20
2022-11-27T10:37:51.787Z,16.61
2022-11-27T10:40:36.537Z,16.59
2022-11-27T10:43:24.082Z,15.04
2022-11-27T10:45:56.708Z,15.14
2022-11-27T10:48:24.058Z,14.23
2022-11-27T10:50:51.880Z,13.97
2022-11-27T10:53:18.761Z,14.04
2022-11-27T10:55:55.255Z,14.88
2022-11-27T10:58:37.367Z,14.82
2022-11-27T11:01:10.729Z,14.80
2022-11-27T11:03:37.931Z,14.40
2022-11-27T11:06:24.546Z,14.46
2022-11-27T11:09:13.218Z,13.63
2022-11-27T11:11:40.828Z,12.72
2022-11-27T11:14:23.008Z,13.72
2022-11-27T11:16:51.477Z,13.16
2022-11-27T11:19:34.456Z,13.82
2022-11-27T11:22:14.597Z,13.18
2022-11-27T11:24:52.620Z,14.09
2022-11-27T11:27:25.316Z,14.70
2022-11-27T11:29:55.549Z,13.38
2022-11-27T11:32:36.379Z,12.48
2022-11-27T11:35:34.849Z,13.09
2022-11-27T11:38:05.569Z,13.93
2022-11-27T11:40:37.653Z,14.48
2022-11-27T11:43:10.141Z,14.27
2022-11-27T11:45:46.289Z,13.25
2022-11-27T11:48:28.944Z,13.18
2022-11-27T11:51:17.733Z,13.13
2022-11-27T11:54:01.258Z,13.97
2022-11-27T11:56:38.098Z,12.99
2022-11-27T11:59:47.354Z,13.51
2022-11-27T12:02:39.448Z,13.83
2022-11-27T12:05:25.857Z,13.69
2022-11-27T12:07:59.895Z,13.18
2022-11-27T12:10:28.080Z,13.44
2022-11-27T12:13:22.238Z,12.42
2022-11-27T12:16:07.793Z,12.18
2022-11-27T12:18:37.755Z,11.78
2022-11-27T12:21:16.696Z,12.50
2022-11-27T12:24:12.922Z,12.58
2022-11-27T12:27:13.127Z,12.90
2022-11-27T12:30:04.022Z,12.88
2022-11-27T12:32:46.981Z,12.96
2022-11-27T12:35:33.429Z,13.93
2022-11-27T12:38:44.427Z,13.47
2022-11-27T12:41:14.271Z,13.15
2022-11-27T12:43:48.095Z,12.82
2022-11-27T12:46:35.361Z,12.76
2022-11-27T12:49:10.519Z,11.69
2022-11-27T12:51:41.362Z,12.02
2022-11-27T12:54:29.975Z,11.71
2022-11-27T12:57:03.422Z,10.72
2022-11-27T12:59:58.649Z,10.46
2022-11-27T13:02:47.231Z,11.33
2022-11-27T13:05:16.319Z,11.02
2022-11-27T13:07:52.014Z,10.74
2022-11-27T13:10:47.516Z,11.22
2022-11-27T13:13:17.102Z,11.21
2022-11-27T13:15:58.901Z,11.39
2022-11-27T13:18:31.680Z,11.25
2022-11-27T13:21:01.341Z,11.89
2022-11-27T13:23:35.141Z,12.15
2022-11-27T13:26:12.090Z,12.01
2022-11-27T13:28:45.641Z,11.85
2022-11-27T13:31:26.295Z,11.43
2022-11-27T13:34:09.572Z,11.48
2022-11-27T13:36:42.843Z,11.34
2022-11-27T13:39:24.063Z,11.06
2022-11-27T13:42:02.771Z,11.64
2022-11-27T13:44:30.880Z,12.03
2022-11-27T13:47:05.130Z,11.71
2022-11-27T13:49:34.255Z,10.77
2022-11-27T13:52:10.813Z,11.50
2022-11-27T13:54:38.747Z,11.17
2022-11-27T13:57:17.804Z,11.30
2022-11-27T14:00:06.838Z,11.73
2022-11-27T14:02:51.015Z,11.67
2022-11-27T14:05:21.210Z,11.72
2022-11-27T14:07:51.579Z,11.50
2022-11-27T14:10:24.504Z,11.47
2022-11-27T14:12:54.454Z,11.34
2022-11-27T14:15:24.591Z,11.28
2022-11-27T14:18:04.431Z,11.54
2022-11-27T14:20:35.522Z,11.38
2022-11-27T14:23:17.758Z,11.37
2022-11-27T14:25:44.724Z,11.36
2022-11-27T14:28:21.991Z,11.26
2022-11-27T14:31:00.367Z,10.69
2022-11-27T14:33:31.194Z,10.65
2022-11-27T14:36:03.972Z,10.89
2022-11-27T14:38:33.317Z,10.45
2022-11-27T14:41:11.749Z,10.60
2022-11-27T14:43:38.709Z,10.51
2022-11-27T14:46:08.315Z,10.39
2022-11-27T14:48:49.927Z,10.65
2022-11-27T14:51:19.392Z,10.88
2022-11-27T14:53:47.974Z,10.62
2022-11-27T14:56:16.184Z,10.55
2022-11-27T14:58:52.588Z,10.41
2022-11-27T15:01:28.061Z,10.37
2022-11-27T15:04:06.149Z,10.52
2022-11-27T15:06:46.337Z,10.35
2022-11-27T15:09:34.994Z,10.26
2022-11-27T15:12:18.250Z,10.40
2022-11-27T15:14:54.530Z,10.37
2022-11-27T15:17:27.624Z,10.43
2022-11-27T15:19:56.784Z,10.58
2022-11-27T15:22:24.550Z,10.45
2022-11-27T15:25:03.810Z,10.41
2022-11-27T15:27:45.820Z,10.48
2022-11-27T15:30:16.941Z,10.63
2022-11-27T15:32:51.971Z,10.61
2022-11-27T15:35:23.577Z,10.45
2022-11-27T15:37:51.734Z,10.39
2022-11-27T15:40:37.474Z,10.11
2022-11-27T15:43:15.558Z,10.35
2022-11-27T15:45:44.527Z,10.14
2022-11-27T15:48:16.899Z,10.23
2022-11-27T15:50:50.074Z,10.42
2022-11-27T15:53:18.830Z,10.41
2022-11-27T15:55:45.842Z,10.39
2022-11-27T15:58:12.867Z,10.40
2022-11-27T16:00:40.724Z,10.26
2022-11-27T16:03:07.896Z,10.06
2022-11-27T16:05:34.766Z,10.07
2022-11-27T16:08:01.722Z,9.98
2022-11-27T16:10:28.666Z,10.23
2022-11-27T16:12:57.639Z,10.36
2022-11-27T16:15:30.037Z,10.48
2022-11-27T16:17:59.741Z,10.16
2022-11-27T16:20:27.070Z,10.20
2022-11-27T16:22:54.241Z,10.26
2022-11-27T16:25:21.157Z,10.06
2022-11-27T16:27:48.089Z,9.99
2022-11-27T16:30:15.217Z,9.95
2022-11-27T16:32:42.325Z,9.92
2022-11-27T16:35:09.757Z,9.69
2022-11-27T16:37:36.825Z,9.58
2022-11-27T16:40:04.091Z,9.92
2022-11-27T16:42:31.602Z,9.69
2022-11-27T16:44:58.703Z,9.89
2022-11-27T16:47:32.149Z,9.97
2022-11-27T16:50:01.138Z,9.75
2022-11-27T16:52:28.740Z,9.65
2022-11-27T16:54:56.296Z,9.62
2022-11-27T16:57:23.659Z,9.29
2022-11-27T16:59:50.967Z,9.46
2022-11-27T17:02:19.476Z,9.42
2022-11-27T17:04:46.361Z,9.54
2022-11-27T17:07:13.320Z,9.42
2022-11-27T17:09:42.248Z,9.26
2022-11-27T17:12:09.199Z,9.68
2022-11-27T17:14:37.136Z,9.36
2022-11-27T17:17:05.811Z,9.82
2022-11-27T17:19:32.638Z,9.98
2022-11-27T17:22:00.367Z,9.53
2022-11-27T17:24:29.003Z,9.72
2022-11-27T17:26:56.256Z,9.65
2022-11-27T17:29:33.543Z,9.52
2022-11-27T17:32:02.830Z,9.68
2022-11-27T17:34:30.190Z,9.45
2022-11-27T17:36:58.766Z,9.11
2022-11-27T17:39:26.662Z,8.75
2022-11-27T17:41:53.574Z,9.06
2022-11-27T17:44:20.776Z,9.17
2022-11-27T17:46:50.191Z,9.35
2022-11-27T17:49:19.635Z,8.79
2022-11-27T17:51:48.898Z,8.95
2022-11-27T17:54:16.204Z,8.43
2022-11-27T17:56:43.427Z,8.54
2022-11-27T17:59:10.838Z,8.86
2022-11-27T18:01:38.998Z,8.73
2022-11-27T18:04:06.126Z,8.73
2022-11-27T18:06:33.664Z,8.57
2022-11-27T18:09:01.233Z,8.74
2022-11-27T18:11:31.059Z,8.79
2022-11-27T18:14:00.449Z,8.98
2022-11-27T18:16:32.008Z,8.45
2022-11-27T18:19:00.084Z,8.61
2022-11-27T18:21:28.807Z,8.72
2022-11-27T18:29:30.365Z,9.02
2022-11-27T18:31:57.349Z,9.22
2022-11-27T18:34:24.342Z,9.42
2022-11-27T18:36:51.348Z,9.16
2022-11-27T18:39:18.666Z,8.97
2022-11-27T18:41:45.576Z,9.12
2022-11-27T18:44:12.569Z,9.31
2022-11-27T18:46:39.602Z,9.19
2022-11-27T18:49:06.768Z,8.98
2022-11-27T18:51:33.682Z,8.88
2022-11-27T18:54:01.086Z,8.77
2022-11-27T18:56:32.134Z,8.78
2022-11-27T18:59:07.079Z,8.80
2022-11-27T19:01:41.456Z,8.75
2022-11-27T19:04:09.543Z,8.41
2022-11-27T19:06:37.853Z,8.21
2022-11-27T19:09:06.291Z,7.74
2022-11-27T19:11:34.167Z,7.93
2022-11-27T19:14:01.888Z,7.64
2022-11-27T19:16:35.528Z,7.87
2022-11-27T19:19:05.024Z,7.98
2022-11-27T19:21:34.548Z,7.99
2022-11-27T19:24:03.732Z,8.20
2022-11-27T19:26:33.915Z,8.28
2022-11-27T19:29:04.190Z,8.16
2022-11-27T19:31:33.209Z,8.16
2022-11-27T19:34:02.463Z,8.31
2022-11-27T19:36:31.545Z,8.58
2022-11-27T19:39:06.509Z,8.06
2022-11-27T19:41:34.129Z,7.95
2022-11-27T19:44:05.646Z,7.91
2022-11-27T19:46:37.907Z,7.38
2022-11-27T19:49:08.220Z,7.38
2022-11-27T19:51:37.553Z,7.20
2022-11-27T19:54:10.067Z,7.25
2022-11-27T19:56:40.190Z,7.17
2022-11-27T19:59:08.039Z,6.98
2022-11-27T20:01:35.477Z,7.13
2022-11-27T20:04:04.128Z,7.48
2022-11-27T20:06:31.809Z,7.25
2022-11-27T20:09:02.045Z,7.35
2022-11-27T20:11:34.642Z,7.31
2022-11-27T20:14:05.890Z,7.30
2022-11-27T20:16:34.781Z,7.04
2022-11-27T20:19:05.717Z,7.00
2022-11-27T20:21:34.725Z,6.98
2022-11-27T20:24:03.225Z,7.17
2022-11-27T20:26:30.810Z,7.21
2022-11-27T20:28:59.086Z,7.09
2022-11-27T20:31:37.730Z,6.61
2022-11-27T20:34:09.065Z,6.52
2022-11-27T20:36:39.326Z,6.51
2022-11-27T20:39:06.676Z,6.96
2022-11-27T20:41:33.640Z,7.12
2022-11-27T20:44:02.511Z,7.26
2022-11-27T20:46:32.061Z,6.90
2022-11-27T20:48:59.652Z,6.76
2022-11-27T20:51:33.444Z,6.85
2022-11-27T20:54:07.165Z,6.78
2022-11-27T20:56:34.353Z,6.86
2022-11-27T20:59:01.574Z,7.19
2022-11-27T21:01:34.820Z,7.41
2022-11-27T21:04:09.342Z,7.12
2022-11-27T21:06:43.420Z,6.98
2022-11-27T21:09:13.959Z,6.95
2022-11-27T21:11:41.406Z,6.88
2022-11-27T21:14:11.169Z,7.07
2022-11-27T21:16:42.118Z,6.94
2022-11-27T21:19:15.685Z,6.73
2022-11-27T21:21:42.773Z,6.77
2022-11-27T21:24:10.074Z,6.63
2022-11-27T21:26:37.200Z,6.33
2022-11-27T21:29:04.494Z,6.81
2022-11-27T21:31:37.251Z,6.75
2022-11-27T21:34:07.066Z,6.70
2022-11-27T21:36:37.092Z,6.00
2022-11-27T21:39:08.210Z,6.25
2022-11-27T21:41:36.367Z,6.45
2022-11-27T21:44:05.422Z,6.62
2022-11-27T21:46:33.852Z,6.28
2022-11-27T21:49:04.597Z,6.61
2022-11-27T21:51:31.748Z,6.31
2022-11-27T21:53:59.632Z,5.98
2022-11-27T21:56:28.871Z,6.10
2022-11-27T21:58:56.197Z,6.16
2022-11-27T22:01:24.866Z,6.03
2022-11-27T22:03:56.613Z,6.50
2022-11-27T22:06:27.039Z,6.45
2022-11-27T22:08:56.847Z,6.04
2022-11-27T22:11:30.425Z,6.05
2022-11-27T22:14:00.670Z,5.91
2022-11-27T22:16:33.505Z,6.37
2022-11-27T22:19:01.352Z,6.78
2022-11-27T22:21:30.198Z,6.88
2022-11-27T22:23:58.548Z,6.16
2022-11-27T22:26:25.863Z,6.66
2022-11-27T22:28:53.555Z,6.51
2022-11-27T22:31:24.108Z,6.68
2022-11-27T22:33:51.541Z,6.62
2022-11-27T22:36:20.701Z,6.83
2022-11-27T22:38:49.407Z,6.40
2022-11-27T22:41:16.975Z,6.18
2022-11-27T22:43:45.046Z,6.17
2022-11-27T22:46:35.597Z,6.58
2022-11-27T22:49:06.815Z,6.49
2022-11-27T22:51:35.796Z,6.92
2022-11-27T22:54:04.464Z,7.06
2022-11-27T22:56:36.220Z,6.95
2022-11-27T22:59:31.005Z,7.06
2022-11-27T23:01:52.897Z,6.53
2022-11-27T23:04:19.855Z,6.40
2022-11-27T23:06:48.555Z,6.74
2022-11-27T23:09:18.093Z,6.65
2022-11-27T23:11:45.497Z,6.99
2022-11-27T23:14:12.775Z,7.18
2022-11-27T23:16:40.165Z,6.42
2022-11-27T23:19:07.344Z,6.49
2022-11-27T23:21:37.632Z,7.08
2022-11-27T23:24:06.267Z,6.99
2022-11-27T23:26:33.137Z,6.77
2022-11-27T23:29:00.050Z,7.14
2022-11-27T23:31:31.224Z,6.45
2022-11-27T23:34:01.320Z,6.34
2022-11-27T23:36:29.380Z,6.90
2022-11-27T23:38:56.831Z,6.98
2022-11-27T23:41:25.145Z,6.54
2022-11-27T23:43:53.679Z,6.82
2022-11-27T23:46:22.801Z,6.63
2022-11-27T23:48:49.936Z,6.86
2022-11-27T23:51:18.658Z,6.83
2022-11-27T23:53:45.958Z,6.83
2022-11-27T23:56:16.370Z,6.70
2022-11-27T23:58:47.248Z,6.90
